createdAt,value
2018-05-27T00:02:01.404Z,17.30
2018-05-27T00:04:29.725Z,17.20
2018-05-27T00:06:58.042Z,17.10
2018-05-27T00:09:26.353Z,17.20
2018-05-27T00:11:54.637Z,17.20
2018-05-27T00:14:23.165Z,17.20
2018-05-27T00:16:51.449Z,17.20
2018-05-27T00:19:19.737Z,17.10
2018-05-27T00:21:48.633Z,17.10
2018-05-27T00:24:17.717Z,17.00
2018-05-27T00:26:46.091Z,17.00
2018-05-27T00:29:14.819Z,17.00
2018-05-27T00:31:43.345Z,17.00
2018-05-27T00:34:11.730Z,17.00
2018-05-27T00:36:40.066Z,17.10
2018-05-27T00:39:09.121Z,17.00
2018-05-27T00:41:37.409Z,17.00
2018-05-27T00:44:05.728Z,17.10
2018-05-27T00:46:34.016Z,17.30
2018-05-27T00:49:02.444Z,17.30
2018-05-27T00:51:30.750Z,17.10
2018-05-27T00:53:59.870Z,17.00
2018-05-27T00:56:28.198Z,16.90
2018-05-27T00:58:56.497Z,16.90
2018-05-27T01:01:24.826Z,16.80
2018-05-27T01:03:53.916Z,16.60
2018-05-27T01:06:22.207Z,16.60
2018-05-27T01:08:50.492Z,16.50
2018-05-27T01:11:18.826Z,16.50
2018-05-27T01:13:47.198Z,16.60
2018-05-27T01:16:16.426Z,16.40
2018-05-27T01:18:44.949Z,16.40
2018-05-27T01:21:13.456Z,16.40
2018-05-27T01:23:42.705Z,16.20
2018-05-27T01:26:12.538Z,16.30
2018-05-27T01:28:42.045Z,16.40
2018-05-27T01:31:10.391Z,16.40
2018-05-27T01:33:38.969Z,16.40
2018-05-27T01:36:07.292Z,16.30
2018-05-27T01:38:35.873Z,16.40
2018-05-27T01:41:04.374Z,16.20
2018-05-27T01:43:32.802Z,16.10
2018-05-27T01:46:01.169Z,16.00
2018-05-27T01:48:29.465Z,16.00
2018-05-27T01:50:57.801Z,16.00
2018-05-27T01:53:26.133Z,15.90
2018-05-27T01:55:54.475Z,15.90
2018-05-27T01:58:23.549Z,15.80
2018-05-27T02:00:52.980Z,15.80
2018-05-27T02:03:21.269Z,15.70
2018-05-27T02:05:49.623Z,15.70
2018-05-27T02:08:18.366Z,15.70
2018-05-27T02:10:47.756Z,15.60
2018-05-27T02:13:16.521Z,15.50
2018-05-27T02:15:44.985Z,15.60
2018-05-27T02:18:13.658Z,15.70
2018-05-27T02:20:42.153Z,15.70
2018-05-27T02:23:10.798Z,15.80
2018-05-27T02:25:39.112Z,15.80
2018-05-27T02:28:07.449Z,15.80
2018-05-27T02:30:36.043Z,15.80
2018-05-27T02:33:04.415Z,15.80
2018-05-27T02:35:33.696Z,15.50
2018-05-27T02:38:02.028Z,15.50
2018-05-27T02:40:31.423Z,15.40
2018-05-27T02:42:59.724Z,15.40
2018-05-27T02:45:28.022Z,15.20
2018-05-27T02:47:56.612Z,15.30
2018-05-27T02:50:24.915Z,15.40
2018-05-27T02:52:53.209Z,15.40
2018-05-27T02:55:21.545Z,15.30
2018-05-27T02:57:49.965Z,15.20
2018-05-27T03:00:19.334Z,15.20
2018-05-27T03:02:48.792Z,15.40
2018-05-27T03:05:17.322Z,15.30
2018-05-27T03:07:45.954Z,15.30
2018-05-27T03:10:14.606Z,15.30
2018-05-27T03:12:43.101Z,15.20
2018-05-27T03:15:12.786Z,15.10
2018-05-27T03:17:41.189Z,15.10
2018-05-27T03:20:10.373Z,15.00
2018-05-27T03:22:38.730Z,15.00
2018-05-27T03:25:07.794Z,15.10
2018-05-27T03:27:36.126Z,15.10
2018-05-27T03:30:04.679Z,15.00
2018-05-27T03:32:33.097Z,15.00
2018-05-27T03:35:01.478Z,15.10
2018-05-27T03:37:29.858Z,15.20
2018-05-27T03:39:58.953Z,15.10
2018-05-27T03:42:27.258Z,15.10
2018-05-27T03:44:55.589Z,15.10
2018-05-27T03:47:24.659Z,15.00
2018-05-27T03:49:52.959Z,14.90
2018-05-27T03:52:21.592Z,14.90
2018-05-27T03:54:49.898Z,15.00
2018-05-27T03:57:18.362Z,15.00
2018-05-27T03:59:46.820Z,15.20
2018-05-27T04:02:15.481Z,15.40
2018-05-27T04:04:56.530Z,15.40
2018-05-27T04:07:36.741Z,15.30
2018-05-27T04:10:05.837Z,15.30
2018-05-27T04:12:34.161Z,15.30
2018-05-27T04:15:03.274Z,14.90
2018-05-27T04:17:32.485Z,14.90
2018-05-27T04:20:00.985Z,14.80
2018-05-27T04:22:30.302Z,14.80
2018-05-27T04:24:58.592Z,14.80
2018-05-27T04:27:26.885Z,14.90
2018-05-27T04:29:55.515Z,15.00
2018-05-27T04:32:23.805Z,14.90
2018-05-27T04:34:52.104Z,15.00
2018-05-27T04:37:20.420Z,15.00
2018-05-27T04:39:49.127Z,15.00
2018-05-27T04:42:17.622Z,15.20
2018-05-27T04:44:46.150Z,15.50
2018-05-27T04:47:14.619Z,15.90
2018-05-27T04:49:43.214Z,16.20
2018-05-27T04:52:11.686Z,16.40
2018-05-27T04:54:40.001Z,16.30
2018-05-27T04:57:08.332Z,16.40
2018-05-27T04:59:36.621Z,16.50
2018-05-27T05:02:05.006Z,16.40
2018-05-27T05:04:34.073Z,16.30
2018-05-27T05:07:02.581Z,16.30
2018-05-27T05:09:30.932Z,16.30
2018-05-27T05:11:59.253Z,16.40
2018-05-27T05:14:27.580Z,16.20
2018-05-27T05:16:55.876Z,16.20
2018-05-27T05:19:24.168Z,16.10
2018-05-27T05:21:52.498Z,16.40
2018-05-27T05:24:20.802Z,16.50
2018-05-27T05:26:49.119Z,16.40
2018-05-27T05:29:17.447Z,16.50
2018-05-27T05:31:46.528Z,16.40
2018-05-27T05:34:15.178Z,16.40
2018-05-27T05:36:43.514Z,16.40
2018-05-27T05:39:11.897Z,16.60
2018-05-27T05:41:40.233Z,16.70
2018-05-27T05:44:08.557Z,16.90
2018-05-27T05:46:36.893Z,17.10
2018-05-27T05:49:05.963Z,17.40
2018-05-27T05:51:34.258Z,17.40
2018-05-27T05:54:02.589Z,17.60
2018-05-27T05:56:30.889Z,17.90
2018-05-27T05:58:59.194Z,18.20
2018-05-27T06:01:27.721Z,18.20
2018-05-27T06:03:56.036Z,18.30
2018-05-27T06:06:25.102Z,18.20
2018-05-27T06:08:53.430Z,18.20
2018-05-27T06:11:21.737Z,18.30
2018-05-27T06:13:50.020Z,18.40
2018-05-27T06:16:18.357Z,18.90
2018-05-27T06:18:47.430Z,19.30
2018-05-27T06:21:16.565Z,19.40
2018-05-27T06:23:44.908Z,19.40
2018-05-27T06:26:13.242Z,19.50
2018-05-27T06:28:41.561Z,19.70
2018-05-27T06:31:10.065Z,19.90
2018-05-27T06:33:38.376Z,20.10
2018-05-27T06:36:06.673Z,20.00
2018-05-27T06:38:35.033Z,20.30
2018-05-27T06:41:03.327Z,20.50
2018-05-27T06:43:32.393Z,21.00
2018-05-27T06:46:01.494Z,21.10
2018-05-27T06:48:29.833Z,21.10
2018-05-27T06:50:58.129Z,21.10
2018-05-27T06:53:26.425Z,20.80
2018-05-27T06:55:54.765Z,21.00
2018-05-27T06:58:23.054Z,21.20
2018-05-27T07:00:51.413Z,21.30
2018-05-27T07:03:19.741Z,21.30
2018-05-27T07:05:48.028Z,21.10
2018-05-27T07:08:16.381Z,20.90
2018-05-27T07:10:45.486Z,21.20
2018-05-27T07:13:13.853Z,21.20
2018-05-27T07:15:42.238Z,21.60
2018-05-27T07:18:10.785Z,22.00
2018-05-27T07:20:39.094Z,22.10
2018-05-27T07:23:07.398Z,22.30
2018-05-27T07:25:35.725Z,22.30
2018-05-27T07:28:05.110Z,22.20
2018-05-27T07:30:33.401Z,22.20
2018-05-27T07:33:01.698Z,22.30
2018-05-27T07:35:30.047Z,22.40
2018-05-27T07:37:58.377Z,22.40
2018-05-27T07:40:26.709Z,22.60
2018-05-27T07:42:55.006Z,22.40
2018-05-27T07:45:23.325Z,22.60
2018-05-27T07:47:51.932Z,22.90
2018-05-27T07:50:20.226Z,23.30
2018-05-27T07:52:48.512Z,23.20
2018-05-27T07:55:16.881Z,23.20
2018-05-27T07:57:45.972Z,23.20
2018-05-27T08:00:14.296Z,23.20
2018-05-27T08:02:42.702Z,23.50
2018-05-27T08:05:11.828Z,23.50
2018-05-27T08:07:40.161Z,23.50
2018-05-27T08:10:08.491Z,23.60
2018-05-27T08:12:36.780Z,23.70
2018-05-27T08:15:05.205Z,23.60
2018-05-27T08:17:33.492Z,23.70
2018-05-27T08:20:01.793Z,24.20
2018-05-27T08:22:30.126Z,24.50
2018-05-27T08:24:59.218Z,24.70
2018-05-27T08:27:27.512Z,24.70
2018-05-27T08:29:55.850Z,24.80
2018-05-27T08:32:24.194Z,25.00
2018-05-27T08:34:52.740Z,24.80
2018-05-27T08:37:21.020Z,24.40
2018-05-27T08:39:49.314Z,24.10
2018-05-27T08:42:17.636Z,24.00
2018-05-27T08:44:45.985Z,24.40
2018-05-27T08:47:15.101Z,24.30
2018-05-27T08:49:44.190Z,24.40
2018-05-27T08:52:12.519Z,24.40
2018-05-27T08:54:41.630Z,24.70
2018-05-27T08:57:10.741Z,24.70
2018-05-27T08:59:39.025Z,24.70
2018-05-27T09:02:07.313Z,24.70
2018-05-27T09:04:35.634Z,25.00
2018-05-27T09:07:03.922Z,25.00
2018-05-27T09:09:32.256Z,25.10
2018-05-27T09:12:00.560Z,25.20
2018-05-27T09:14:28.854Z,25.30
2018-05-27T09:16:57.168Z,25.50
2018-05-27T09:19:25.463Z,25.40
2018-05-27T09:21:53.785Z,25.30
2018-05-27T09:24:22.846Z,25.50
2018-05-27T09:26:51.172Z,25.40
2018-05-27T09:29:19.674Z,25.40
2018-05-27T09:31:47.967Z,25.50
2018-05-27T09:34:16.289Z,25.60
2018-05-27T09:36:44.649Z,25.90
2018-05-27T09:39:13.156Z,26.10
2018-05-27T09:41:41.502Z,26.40
2018-05-27T09:44:09.789Z,26.30
2018-05-27T09:46:38.110Z,26.50
2018-05-27T09:49:06.397Z,26.40
2018-05-27T09:51:34.709Z,26.40
2018-05-27T09:54:02.998Z,26.40
2018-05-27T09:56:31.324Z,26.80
2018-05-27T09:58:59.856Z,26.90
2018-05-27T10:01:29.257Z,27.00
2018-05-27T10:03:57.543Z,27.00
2018-05-27T10:06:25.831Z,26.80
2018-05-27T10:08:54.152Z,26.80
2018-05-27T10:11:22.438Z,26.80
2018-05-27T10:13:50.758Z,26.80
2018-05-27T10:16:19.049Z,26.80
2018-05-27T10:18:47.564Z,26.80
2018-05-27T10:21:15.862Z,26.80
2018-05-27T10:23:44.174Z,26.90
2018-05-27T10:26:12.555Z,27.50
2018-05-27T10:28:40.918Z,27.50
2018-05-27T10:31:09.255Z,27.50
2018-05-27T10:33:37.543Z,27.60
2018-05-27T10:36:06.073Z,27.70
2018-05-27T10:38:34.352Z,27.50
2018-05-27T10:41:02.632Z,27.60
2018-05-27T10:43:31.732Z,27.70
2018-05-27T10:46:00.039Z,27.70
2018-05-27T10:48:28.352Z,27.90
2018-05-27T10:50:57.414Z,28.10
2018-05-27T10:53:25.705Z,28.10
2018-05-27T10:55:54.025Z,28.20
2018-05-27T10:58:23.078Z,27.00
2018-05-27T11:00:51.397Z,27.00
2018-05-27T11:03:21.463Z,27.30
2018-05-27T11:05:49.805Z,27.30
2018-05-27T11:08:18.050Z,27.60
2018-05-27T11:10:47.174Z,27.80
2018-05-27T11:13:16.285Z,28.30
2018-05-27T11:15:45.410Z,28.80
2018-05-27T11:18:14.561Z,29.40
2018-05-27T11:20:42.958Z,29.30
2018-05-27T11:23:11.838Z,29.30
2018-05-27T11:25:40.946Z,28.80
2018-05-27T11:28:09.283Z,28.80
2018-05-27T11:30:37.606Z,28.80
2018-05-27T11:33:05.902Z,29.00
2018-05-27T11:35:34.246Z,28.60
2018-05-27T11:38:02.528Z,28.50
2018-05-27T11:40:31.781Z,28.40
2018-05-27T11:43:00.142Z,28.40
2018-05-27T11:45:28.423Z,28.60
2018-05-27T11:47:56.709Z,28.80
2018-05-27T11:50:25.797Z,29.10
2018-05-27T11:52:54.108Z,29.10
2018-05-27T11:55:22.388Z,29.30
2018-05-27T11:57:50.821Z,29.40
2018-05-27T12:00:19.197Z,29.30
2018-05-27T12:02:47.570Z,29.10
2018-05-27T12:05:15.997Z,29.00
2018-05-27T12:07:44.351Z,28.80
2018-05-27T12:10:12.745Z,28.50
2018-05-27T12:12:41.972Z,28.00
2018-05-27T12:15:10.739Z,28.00
2018-05-27T12:17:39.065Z,28.00
2018-05-27T12:20:07.392Z,27.90
2018-05-27T12:22:36.476Z,27.20
2018-05-27T12:25:04.765Z,27.20
2018-05-27T12:27:33.044Z,27.10
2018-05-27T12:30:01.393Z,27.10
2018-05-27T12:32:29.758Z,27.40
2018-05-27T12:34:58.101Z,27.60
2018-05-27T12:37:26.380Z,28.10
2018-05-27T12:39:54.677Z,28.40
2018-05-27T12:42:23.006Z,28.60
2018-05-27T12:44:51.294Z,28.70
2018-05-27T12:47:19.572Z,28.60
2018-05-27T12:49:47.948Z,28.50
2018-05-27T12:52:17.156Z,27.10
2018-05-27T12:54:46.280Z,26.60
2018-05-27T12:57:15.482Z,26.20
2018-05-27T12:59:43.888Z,26.20
2018-05-27T13:02:12.229Z,25.70
2018-05-27T13:04:40.578Z,25.30
2018-05-27T13:07:08.900Z,24.80
2018-05-27T13:09:37.212Z,24.30
2018-05-27T13:12:06.302Z,24.00
2018-05-27T13:14:34.620Z,24.00
2018-05-27T13:17:02.977Z,23.40
2018-05-27T13:19:31.301Z,23.10
2018-05-27T13:21:59.605Z,22.80
2018-05-27T13:24:27.944Z,22.80
2018-05-27T13:26:56.992Z,23.00
2018-05-27T13:29:25.273Z,23.00
2018-05-27T13:31:54.358Z,23.30
2018-05-27T13:34:22.682Z,23.30
2018-05-27T13:36:50.961Z,23.40
2018-05-27T13:39:19.240Z,23.40
2018-05-27T13:41:47.638Z,23.40
2018-05-27T13:44:16.157Z,23.40
2018-05-27T13:46:44.741Z,23.40
2018-05-27T13:49:13.179Z,23.40
2018-05-27T13:51:41.521Z,23.50
2018-05-27T13:54:10.600Z,23.40
2018-05-27T13:56:38.903Z,23.40
2018-05-27T13:59:07.504Z,23.40
2018-05-27T14:01:35.809Z,23.50
2018-05-27T14:04:04.092Z,23.70
2018-05-27T14:06:32.474Z,24.00
2018-05-27T14:09:00.821Z,24.40
2018-05-27T14:11:29.142Z,25.00
2018-05-27T14:13:57.433Z,25.30
2018-05-27T14:16:25.925Z,25.10
2018-05-27T14:18:54.208Z,24.90
2018-05-27T14:21:22.487Z,24.90
2018-05-27T14:23:50.818Z,24.90
2018-05-27T14:26:19.110Z,25.10
2018-05-27T14:28:47.424Z,25.20
2018-05-27T14:31:15.940Z,24.90
2018-05-27T14:33:44.340Z,25.00
2018-05-27T14:36:12.735Z,25.00
2018-05-27T14:38:41.386Z,25.00
2018-05-27T14:41:09.676Z,24.80
2018-05-27T14:43:37.966Z,24.70
2018-05-27T14:46:06.289Z,24.60
2018-05-27T14:48:34.568Z,24.70
2018-05-27T14:51:02.887Z,24.50
2018-05-27T14:53:31.313Z,24.30
2018-05-27T14:56:00.442Z,23.80
2018-05-27T14:58:30.073Z,23.60
2018-05-27T15:00:59.137Z,23.30
2018-05-27T15:03:28.196Z,23.20
2018-05-27T15:05:56.531Z,23.20
2018-05-27T15:08:24.813Z,23.10
2018-05-27T15:10:53.865Z,23.50
2018-05-27T15:13:22.180Z,23.50
2018-05-27T15:15:50.537Z,23.50
2018-05-27T15:18:18.818Z,23.30
2018-05-27T15:20:47.906Z,23.00
2018-05-27T15:23:17.372Z,23.10
2018-05-27T15:25:45.876Z,23.30
2018-05-27T15:28:14.195Z,23.30
2018-05-27T15:30:42.612Z,23.20
2018-05-27T15:33:12.075Z,24.20
2018-05-27T15:35:40.404Z,24.20
2018-05-27T15:38:08.818Z,25.40
2018-05-27T15:40:38.201Z,26.60
2018-05-27T15:43:06.478Z,26.50
2018-05-27T15:45:34.790Z,25.60
2018-05-27T15:48:03.105Z,25.30
2018-05-27T15:50:31.445Z,25.00
2018-05-27T15:52:59.813Z,24.90
2018-05-27T15:55:28.202Z,25.10
2018-05-27T15:57:56.529Z,25.30
2018-05-27T16:00:24.812Z,25.50
2018-05-27T16:02:53.348Z,25.20
2018-05-27T16:05:21.644Z,25.30
2018-05-27T16:07:49.923Z,24.30
2018-05-27T16:10:18.232Z,23.90
2018-05-27T16:12:46.553Z,23.60
2018-05-27T16:15:15.188Z,23.60
2018-05-27T16:17:43.481Z,23.30
2018-05-27T16:20:11.870Z,23.10
2018-05-27T16:22:41.002Z,22.70
2018-05-27T16:25:10.121Z,22.80
2018-05-27T16:27:38.406Z,22.70
2018-05-27T16:30:06.730Z,22.70
2018-05-27T16:32:35.008Z,22.80
2018-05-27T16:35:03.358Z,22.80
2018-05-27T16:37:32.445Z,23.10
2018-05-27T16:40:00.775Z,23.10
2018-05-27T16:42:29.833Z,23.60
2018-05-27T16:44:58.174Z,23.60
2018-05-27T16:47:26.450Z,23.80
2018-05-27T16:49:54.741Z,24.00
2018-05-27T16:52:23.057Z,23.60
2018-05-27T16:54:51.338Z,23.50
2018-05-27T16:57:19.659Z,23.40
2018-05-27T16:59:48.000Z,23.30
2018-05-27T17:02:16.365Z,23.30
2018-05-27T17:04:44.825Z,23.40
2018-05-27T17:07:13.211Z,23.20
2018-05-27T17:09:42.422Z,23.20
2018-05-27T17:12:10.714Z,23.10
2018-05-27T17:14:39.061Z,23.00
2018-05-27T17:17:08.120Z,22.90
2018-05-27T17:19:36.437Z,22.90
2018-05-27T17:22:04.754Z,23.10
2018-05-27T17:24:33.043Z,23.10
2018-05-27T17:27:01.359Z,23.00
2018-05-27T17:29:29.684Z,22.90
2018-05-27T17:31:58.745Z,22.60
2018-05-27T17:34:27.062Z,22.60
2018-05-27T17:36:55.414Z,22.50
2018-05-27T17:39:24.505Z,22.30
2018-05-27T17:41:52.788Z,22.20
2018-05-27T17:44:21.073Z,22.20
2018-05-27T17:46:49.400Z,22.10
2018-05-27T17:49:17.729Z,22.10
2018-05-27T17:51:46.866Z,22.10
2018-05-27T17:54:16.083Z,22.10
2018-05-27T17:56:44.549Z,22.00
2018-05-27T17:59:13.712Z,22.00
2018-05-27T18:01:42.295Z,22.00
2018-05-27T18:04:10.638Z,21.90
2018-05-27T18:06:38.999Z,21.90
2018-05-27T18:09:08.072Z,21.70
2018-05-27T18:11:36.401Z,21.70
2018-05-27T18:14:04.708Z,21.60
2018-05-27T18:16:33.358Z,21.50
2018-05-27T18:19:01.710Z,21.50
2018-05-27T18:21:30.060Z,21.50
2018-05-27T18:23:59.138Z,21.20
2018-05-27T18:26:27.539Z,21.10
2018-05-27T18:28:55.827Z,20.90
2018-05-27T18:31:24.170Z,20.80
2018-05-27T18:33:52.513Z,20.90
2018-05-27T18:36:21.090Z,20.80
2018-05-27T18:38:49.411Z,20.70
2018-05-27T18:41:17.814Z,20.70
2018-05-27T18:43:47.094Z,20.50
2018-05-27T18:46:15.578Z,20.50
2018-05-27T18:48:44.129Z,20.40
2018-05-27T18:51:14.116Z,20.20
2018-05-27T18:53:42.677Z,20.20
2018-05-27T18:56:11.758Z,20.10
2018-05-27T18:58:40.086Z,20.00
2018-05-27T19:01:08.689Z,19.90
2018-05-27T19:03:36.994Z,19.60
2018-05-27T19:06:05.490Z,19.50
2018-05-27T19:08:34.659Z,19.70
2018-05-27T19:11:03.963Z,19.80
2018-05-27T19:13:32.360Z,19.70
2018-05-27T19:16:00.637Z,19.70
2018-05-27T19:18:28.935Z,19.50
2018-05-27T19:20:57.352Z,19.40
2018-05-27T19:23:25.651Z,19.30
2018-05-27T19:25:53.974Z,19.40
2018-05-27T19:28:22.381Z,19.50
2018-05-27T19:30:50.674Z,19.40
2018-05-27T19:33:18.956Z,19.30
2018-05-27T19:35:47.353Z,19.30
2018-05-27T19:38:15.869Z,19.30
2018-05-27T19:40:44.341Z,19.30
2018-05-27T19:43:12.808Z,19.30
2018-05-27T19:45:41.108Z,19.30
2018-05-27T19:48:09.603Z,19.30
2018-05-27T19:50:37.903Z,19.30
2018-05-27T19:53:06.200Z,19.30
2018-05-27T19:55:34.622Z,19.20
2018-05-27T19:58:02.937Z,19.10
2018-05-27T20:00:31.266Z,19.10
2018-05-27T20:03:00.396Z,19.10
2018-05-27T20:05:28.778Z,19.10
2018-05-27T20:07:57.090Z,19.10
2018-05-27T20:10:26.370Z,19.00
2018-05-27T20:12:54.658Z,19.00
2018-05-27T20:15:22.950Z,18.90
2018-05-27T20:17:51.381Z,18.90
2018-05-27T20:20:19.700Z,18.90
2018-05-27T20:22:48.076Z,18.90
2018-05-27T20:25:16.361Z,18.90
2018-05-27T20:27:44.734Z,18.90
2018-05-27T20:30:13.123Z,19.00
2018-05-27T20:32:42.322Z,18.70
2018-05-27T20:35:10.724Z,18.70
2018-05-27T20:37:39.026Z,18.60
2018-05-27T20:40:07.616Z,18.60
2018-05-27T20:42:35.911Z,18.60
2018-05-27T20:45:04.368Z,18.60
2018-05-27T20:47:32.728Z,18.60
2018-05-27T20:50:01.199Z,18.30
2018-05-27T20:52:30.237Z,18.20
2018-05-27T20:54:58.698Z,18.20
2018-05-27T20:57:27.838Z,18.30
2018-05-27T20:59:56.910Z,18.30
2018-05-27T21:02:25.312Z,18.20
2018-05-27T21:04:53.614Z,18.20
2018-05-27T21:07:21.928Z,18.20
2018-05-27T21:09:50.261Z,18.20
2018-05-27T21:12:19.322Z,18.10
2018-05-27T21:14:47.640Z,18.10
2018-05-27T21:17:16.004Z,18.10
2018-05-27T21:19:44.337Z,18.00
2018-05-27T21:22:12.697Z,17.90
2018-05-27T21:24:41.876Z,17.90
2018-05-27T21:27:11.264Z,17.90
2018-05-27T21:29:39.621Z,18.00
2018-05-27T21:32:08.010Z,17.90
2018-05-27T21:34:36.344Z,18.00
2018-05-27T21:37:05.405Z,18.00
2018-05-27T21:39:33.739Z,17.90
2018-05-27T21:42:02.028Z,17.90
2018-05-27T21:44:30.317Z,17.90
2018-05-27T21:46:58.648Z,17.80
2018-05-27T21:49:26.953Z,17.70
2018-05-27T21:51:55.243Z,17.70
2018-05-27T21:54:25.085Z,17.50
2018-05-27T21:56:53.377Z,17.50
2018-05-27T21:59:21.700Z,17.50
2018-05-27T22:01:50.076Z,17.40
2018-05-27T22:04:18.412Z,17.40
2018-05-27T22:06:46.697Z,17.30
2018-05-27T22:09:16.501Z,17.30
2018-05-27T22:11:44.886Z,17.30
2018-05-27T22:14:13.285Z,17.30
2018-05-27T22:16:41.672Z,17.30
2018-05-27T22:19:10.770Z,17.30
2018-05-27T22:21:39.112Z,17.30
2018-05-27T22:24:07.410Z,17.30
2018-05-27T22:26:35.759Z,17.40
2018-05-27T22:29:04.065Z,17.30
2018-05-27T22:31:32.560Z,17.30
2018-05-27T22:34:00.972Z,17.20
2018-05-27T22:36:29.501Z,17.20
2018-05-27T22:38:57.820Z,17.20
2018-05-27T22:41:26.871Z,17.20
2018-05-27T22:43:55.195Z,17.20
2018-05-27T22:46:23.488Z,17.00
2018-05-27T22:48:51.813Z,17.00
2018-05-27T22:51:20.222Z,17.00
2018-05-27T22:53:48.512Z,17.00
2018-05-27T22:56:16.818Z,17.00
2018-05-27T22:58:45.238Z,17.00
2018-05-27T23:01:13.750Z,16.90
2018-05-27T23:03:42.080Z,16.80
2018-05-27T23:06:10.458Z,16.90
2018-05-27T23:08:38.741Z,16.70
2018-05-27T23:11:07.068Z,16.80
2018-05-27T23:13:35.449Z,16.80
2018-05-27T23:16:03.749Z,16.80
2018-05-27T23:18:32.076Z,16.80
2018-05-27T23:21:00.387Z,16.80
2018-05-27T23:23:29.684Z,16.80
2018-05-27T23:25:58.024Z,16.80
2018-05-27T23:28:26.388Z,16.70
2018-05-27T23:30:54.792Z,16.70
2018-05-27T23:33:23.086Z,16.70
2018-05-27T23:35:51.484Z,16.70
2018-05-27T23:38:19.809Z,16.60
2018-05-27T23:40:48.105Z,16.50
2018-05-27T23:43:16.713Z,16.50
2018-05-27T23:45:45.000Z,16.50
2018-05-27T23:48:13.317Z,16.50
2018-05-27T23:50:43.660Z,16.60
2018-05-27T23:53:11.974Z,16.60
2018-05-27T23:55:40.297Z,16.70
2018-05-27T23:58:09.594Z,16.60
